John H. — WAC6768 — position and weather

sailwx.info

Track history (hours):
 
Tides and Currents Weather Stations Pressure Air Temp Water Temp Dewpoint Dewpoint Depression Visibility Wind Speed Wind Dir Waves Ship Positions

John H.

Owner: CROSS SOUND FERRY SERVICE INC, NEW LOUDON, CT. More information available from US FCC via Universal Licensing System and Coast Guard Vessel Documentation Center.

Last reported at 2015-Jul-28 00:29 UTC. Time now 2015-Jul-28 05:46 UTC.
Position N 41°21' W 072°06'.

Length 70 m.

Type: Passenger vessel. MMSI: 366934890.

Date/timePositionNaut miles runAvg speedWind from/ knotsBaromVisibWave heightAir tempDewpointWater temp
2015-Jul-28 00:29N 41°21' W 072°06'9 9.4
2015-Jul-27 23:33N 41°13' W 072°10'5 5.2
2015-Jul-27 22:33N 41°09' W 072°14'9 8.9
2015-Jul-27 21:33N 41°16' W 072°07'5 5.2
2015-Jul-27 20:33N 41°21' W 072°06'8 8.1
2015-Jul-27 19:33N 41°14' W 072°10'6 5.8
2015-Jul-27 18:33N 41°09' W 072°14'10 9.8
2015-Jul-27 17:33N 41°17' W 072°06'5 4.5
2015-Jul-27 16:33N 41°21' W 072°06'10 9.9
2015-Jul-27 15:33N 41°12' W 072°11'4 4.1
2015-Jul-27 14:33N 41°09' W 072°14'11 9.6
2015-Jul-27 13:22N 41°18' W 072°05'3 3.7
2015-Jul-27 12:33N 41°21' W 072°06'14 1.4
2015-Jul-27 02:25N 41°09' W 072°14'11 4.8
2015-Jul-27 00:06N 41°18' W 072°05'10 5.4
2015-Jul-26 22:13N 41°10' W 072°13'1 0.2
2015-Jul-26 18:16N 41°09' W 072°13'5 1.9
2015-Jul-26 15:34N 41°14' W 072°09'5 3.8
2015-Jul-26 14:12N 41°09' W 072°13'0 0.0
2015-Jul-25 16:20N 41°09' W 072°13'13 0.9
2015-Jul-25 02:07N 41°21' W 072°05'712.6
2015-Jul-25 01:32N 41°14' W 072°09'3 2.4
2015-Jul-25 00:06N 41°12' W 072°13'3 0.9
2015-Jul-24 20:24N 41°09' W 072°14'5 1.9
2015-Jul-24 17:32N 41°13' W 072°10'5 1.0
2015-Jul-24 12:16N 41°09' W 072°14'811.7
2015-Jul-24 11:33N 41°16' W 072°07'6 5.6
2015-Jul-24 10:33N 41°21' W 072°06'0 0.0
2015-Jul-24 00:20N 41°21' W 072°06'810.3
2015-Jul-23 23:34N 41°14' W 072°09'6 6.1
2015-Jul-23 22:33N 41°09' W 072°14'8 8.0
2015-Jul-23 21:33N 41°16' W 072°08'6 6.0
2015-Jul-23 20:33N 41°21' W 072°06'9 8.5
2015-Jul-23 19:33N 41°13' W 072°10'5 5.4
2015-Jul-23 18:33N 41°09' W 072°14'9 9.2
2015-Jul-23 17:34N 41°16' W 072°07'5 5.0
2015-Jul-23 16:34N 41°21' W 072°06'9 8.8
2015-Jul-23 15:33N 41°13' W 072°10'5 5.2
2015-Jul-23 14:33N 41°09' W 072°14'8 8.0
2015-Jul-23 13:34N 41°16' W 072°08'6 6.1
2015-Jul-23 12:33N 41°21' W 072°06'8 8.1
2015-Jul-23 11:33N 41°14' W 072°09'6 6.1
2015-Jul-23 10:33N 41°09' W 072°14'0 0.0
2015-Jul-23 00:33N 41°09' W 072°14'9 8.6
2015-Jul-22 23:33N 41°16' W 072°07'6 5.5
2015-Jul-22 22:33N 41°21' W 072°06'9 8.8
2015-Jul-22 21:33N 41°13' W 072°10'5 5.1
2015-Jul-22 20:33N 41°09' W 072°14'9 9.1
2015-Jul-22 19:33N 41°16' W 072°07'5 5.0
2015-Jul-22 18:33N 41°21' W 072°06'10 9.9
2015-Jul-22 17:33N 41°12' W 072°11'4 4.0
2015-Jul-22 16:33N 41°09' W 072°14'8 8.1
2015-Jul-22 15:33N 41°16' W 072°08'6 5.9
2015-Jul-22 14:33N 41°21' W 072°06'9 8.6
2015-Jul-22 13:33N 41°13' W 072°09'5 5.5
2015-Jul-22 12:34N 41°09' W 072°14'9 8.6
2015-Jul-22 11:33N 41°16' W 072°07'6 5.5
2015-Jul-22 10:33N 41°21' W 072°06'0 0.0
2015-Jul-22 00:25N 41°21' W 072°06'8 9.4
2015-Jul-21 23:33N 41°14' W 072°09'6 5.8
2015-Jul-21 22:30N 41°09' W 072°14'9 9.2
2015-Jul-21 21:33N 41°16' W 072°07'5 5.5
2015-Jul-21 20:33N 41°21' W 072°06'9 9.1
2015-Jul-21 19:34N 41°13' W 072°10'5 4.8
2015-Jul-21 18:33N 41°09' W 072°14'1010.2
2015-Jul-21 17:33N 41°17' W 072°06'4 4.2
2015-Jul-21 16:33N 41°21' W 072°06'0 0.0
2015-Jul-21 15:33N 41°21' W 072°06'0 0.0
2015-Jul-21 14:33N 41°21' W 072°06'0 0.0
2015-Jul-21 13:33N 41°21' W 072°06'0 0.0
2015-Jul-21 12:33N 41°21' W 072°06'8 8.5
2015-Jul-21 11:33N 41°13' W 072°09'6 5.6
2015-Jul-21 10:34N 41°09' W 072°14'0 0.0
2015-Jul-21 00:33N 41°09' W 072°14'9 8.8
2015-Jul-20 23:33N 41°16' W 072°07'5 5.4
2015-Jul-20 22:33N 41°21' W 072°06'8 7.7
2015-Jul-20 21:33N 41°14' W 072°08'6 6.5
2015-Jul-20 20:33N 41°09' W 072°14'10 9.9
2015-Jul-20 19:33N 41°17' W 072°06'4 4.4
2015-Jul-20 18:33N 41°21' W 072°06'9 8.8
2015-Jul-20 17:33N 41°13' W 072°10'5 5.1
2015-Jul-20 16:33N 41°09' W 072°14'1010.1
2015-Jul-20 15:33N 41°17' W 072°06'4 4.2
2015-Jul-20 14:33N 41°21' W 072°06'8 7.9
2015-Jul-20 13:33N 41°14' W 072°09'6 6.2
2015-Jul-20 12:33N 41°09' W 072°14'4 0.4
2015-Jul-20 01:32N 41°13' W 072°11'4 3.6
2015-Jul-20 00:23N 41°09' W 072°14'0 0.0
2015-Jul-19 16:21N 41°09' W 072°14'1012.6
2015-Jul-19 15:33N 41°17' W 072°06'4 4.3
2015-Jul-19 14:33N 41°21' W 072°06'1010.1
2015-Jul-19 13:33N 41°12' W 072°12'4 3.7
2015-Jul-19 12:33N 41°09' W 072°14'9 9.0
2015-Jul-19 11:34N 41°16' W 072°07'5 5.2
2015-Jul-19 10:33N 41°21' W 072°06'0 0.0
2015-Jul-19 00:25N 41°21' W 072°06'8 9.6
2015-Jul-18 23:33N 41°13' W 072°09'6 6.1
2015-Jul-18 22:33N 41°09' W 072°14'8 7.8
2015-Jul-18 21:33N 41°15' W 072°08'6 6.2
2015-Jul-18 20:33N 41°21' W 072°06'8 7.9
2015-Jul-18 19:33N 41°14' W 072°09'6 6.2
2015-Jul-18 18:33N 41°09' W 072°14'10 9.9
2015-Jul-18 17:33N 41°17' W 072°06'4 4.4
2015-Jul-18 16:33N 41°21' W 072°06'9 8.8
2015-Jul-18 15:33N 41°13' W 072°10'5 5.2
2015-Jul-18 14:33N 41°09' W 072°14'8 8.3
2015-Jul-18 13:33N 41°16' W 072°08'6 5.7
2015-Jul-18 12:33N 41°21' W 072°06'8 8.1
2015-Jul-18 11:33N 41°14' W 072°09'6 6.1
2015-Jul-18 10:33N 41°09' W 072°14'0 0.0
2015-Jul-18 02:09N 41°09' W 072°14'4 6.3
2015-Jul-18 01:33N 41°13' W 072°12'1010.1
2015-Jul-18 00:33N 41°21' W 072°06'  
Track history (hours):
 
Tides and Currents Weather Stations Pressure Air Temp Water Temp Dewpoint Dewpoint Depression Visibility Wind Speed Wind Dir Waves Ship Positions

John H.

Owner: CROSS SOUND FERRY SERVICE INC, NEW LOUDON, CT. More information available from US FCC via Universal Licensing System and Coast Guard Vessel Documentation Center.

Last reported at 2015-Jul-28 00:29 UTC. Time now 2015-Jul-28 05:46 UTC.
Position N 41°21' W 072°06'.

Length 70 m.

Type: Passenger vessel. MMSI: 366934890.

Date/timePositionNaut miles runAvg speedWind from/ knotsBaromVisibWave heightAir tempDewpointWater temp
2015-Jul-28 00:29N 41°21' W 072°06'9 9.4
2015-Jul-27 23:33N 41°13' W 072°10'5 5.2
2015-Jul-27 22:33N 41°09' W 072°14'9 8.9
2015-Jul-27 21:33N 41°16' W 072°07'5 5.2
2015-Jul-27 20:33N 41°21' W 072°06'8 8.1
2015-Jul-27 19:33N 41°14' W 072°10'6 5.8
2015-Jul-27 18:33N 41°09' W 072°14'10 9.8
2015-Jul-27 17:33N 41°17' W 072°06'5 4.5
2015-Jul-27 16:33N 41°21' W 072°06'10 9.9
2015-Jul-27 15:33N 41°12' W 072°11'4 4.1
2015-Jul-27 14:33N 41°09' W 072°14'11 9.6
2015-Jul-27 13:22N 41°18' W 072°05'3 3.7
2015-Jul-27 12:33N 41°21' W 072°06'14 1.4
2015-Jul-27 02:25N 41°09' W 072°14'11 4.8
2015-Jul-27 00:06N 41°18' W 072°05'10 5.4
2015-Jul-26 22:13N 41°10' W 072°13'1 0.2
2015-Jul-26 18:16N 41°09' W 072°13'5 1.9
2015-Jul-26 15:34N 41°14' W 072°09'5 3.8
2015-Jul-26 14:12N 41°09' W 072°13'0 0.0
2015-Jul-25 16:20N 41°09' W 072°13'13 0.9
2015-Jul-25 02:07N 41°21' W 072°05'712.6
2015-Jul-25 01:32N 41°14' W 072°09'3 2.4
2015-Jul-25 00:06N 41°12' W 072°13'3 0.9
2015-Jul-24 20:24N 41°09' W 072°14'5 1.9
2015-Jul-24 17:32N 41°13' W 072°10'5 1.0
2015-Jul-24 12:16N 41°09' W 072°14'811.7
2015-Jul-24 11:33N 41°16' W 072°07'6 5.6
2015-Jul-24 10:33N 41°21' W 072°06'0 0.0
2015-Jul-24 00:20N 41°21' W 072°06'810.3
2015-Jul-23 23:34N 41°14' W 072°09'6 6.1
2015-Jul-23 22:33N 41°09' W 072°14'8 8.0
2015-Jul-23 21:33N 41°16' W 072°08'6 6.0
2015-Jul-23 20:33N 41°21' W 072°06'9 8.5
2015-Jul-23 19:33N 41°13' W 072°10'5 5.4
2015-Jul-23 18:33N 41°09' W 072°14'9 9.2
2015-Jul-23 17:34N 41°16' W 072°07'5 5.0
2015-Jul-23 16:34N 41°21' W 072°06'9 8.8
2015-Jul-23 15:33N 41°13' W 072°10'5 5.2
2015-Jul-23 14:33N 41°09' W 072°14'8 8.0
2015-Jul-23 13:34N 41°16' W 072°08'6 6.1
2015-Jul-23 12:33N 41°21' W 072°06'8 8.1
2015-Jul-23 11:33N 41°14' W 072°09'6 6.1
2015-Jul-23 10:33N 41°09' W 072°14'0 0.0
2015-Jul-23 00:33N 41°09' W 072°14'9 8.6
2015-Jul-22 23:33N 41°16' W 072°07'6 5.5
2015-Jul-22 22:33N 41°21' W 072°06'9 8.8
2015-Jul-22 21:33N 41°13' W 072°10'5 5.1
2015-Jul-22 20:33N 41°09' W 072°14'9 9.1
2015-Jul-22 19:33N 41°16' W 072°07'5 5.0
2015-Jul-22 18:33N 41°21' W 072°06'10 9.9
2015-Jul-22 17:33N 41°12' W 072°11'4 4.0
2015-Jul-22 16:33N 41°09' W 072°14'8 8.1
2015-Jul-22 15:33N 41°16' W 072°08'6 5.9
2015-Jul-22 14:33N 41°21' W 072°06'9 8.6
2015-Jul-22 13:33N 41°13' W 072°09'5 5.5
2015-Jul-22 12:34N 41°09' W 072°14'9 8.6
2015-Jul-22 11:33N 41°16' W 072°07'6 5.5
2015-Jul-22 10:33N 41°21' W 072°06'0 0.0
2015-Jul-22 00:25N 41°21' W 072°06'8 9.4
2015-Jul-21 23:33N 41°14' W 072°09'6 5.8
2015-Jul-21 22:30N 41°09' W 072°14'9 9.2
2015-Jul-21 21:33N 41°16' W 072°07'5 5.5
2015-Jul-21 20:33N 41°21' W 072°06'9 9.1
2015-Jul-21 19:34N 41°13' W 072°10'5 4.8
2015-Jul-21 18:33N 41°09' W 072°14'1010.2
2015-Jul-21 17:33N 41°17' W 072°06'4 4.2
2015-Jul-21 16:33N 41°21' W 072°06'0 0.0
2015-Jul-21 15:33N 41°21' W 072°06'0 0.0
2015-Jul-21 14:33N 41°21' W 072°06'0 0.0
2015-Jul-21 13:33N 41°21' W 072°06'0 0.0
2015-Jul-21 12:33N 41°21' W 072°06'8 8.5
2015-Jul-21 11:33N 41°13' W 072°09'6 5.6
2015-Jul-21 10:34N 41°09' W 072°14'0 0.0
2015-Jul-21 00:33N 41°09' W 072°14'9 8.8
2015-Jul-20 23:33N 41°16' W 072°07'5 5.4
2015-Jul-20 22:33N 41°21' W 072°06'8 7.7
2015-Jul-20 21:33N 41°14' W 072°08'6 6.5
2015-Jul-20 20:33N 41°09' W 072°14'10 9.9
2015-Jul-20 19:33N 41°17' W 072°06'4 4.4
2015-Jul-20 18:33N 41°21' W 072°06'9 8.8
2015-Jul-20 17:33N 41°13' W 072°10'5 5.1
2015-Jul-20 16:33N 41°09' W 072°14'1010.1
2015-Jul-20 15:33N 41°17' W 072°06'4 4.2
2015-Jul-20 14:33N 41°21' W 072°06'8 7.9
2015-Jul-20 13:33N 41°14' W 072°09'6 6.2
2015-Jul-20 12:33N 41°09' W 072°14'4 0.4
2015-Jul-20 01:32N 41°13' W 072°11'4 3.6
2015-Jul-20 00:23N 41°09' W 072°14'0 0.0
2015-Jul-19 16:21N 41°09' W 072°14'1012.6
2015-Jul-19 15:33N 41°17' W 072°06'4 4.3
2015-Jul-19 14:33N 41°21' W 072°06'1010.1
2015-Jul-19 13:33N 41°12' W 072°12'4 3.7
2015-Jul-19 12:33N 41°09' W 072°14'9 9.0
2015-Jul-19 11:34N 41°16' W 072°07'5 5.2
2015-Jul-19 10:33N 41°21' W 072°06'0 0.0
2015-Jul-19 00:25N 41°21' W 072°06'8 9.6
2015-Jul-18 23:33N 41°13' W 072°09'6 6.1
2015-Jul-18 22:33N 41°09' W 072°14'8 7.8
2015-Jul-18 21:33N 41°15' W 072°08'6 6.2
2015-Jul-18 20:33N 41°21' W 072°06'8 7.9
2015-Jul-18 19:33N 41°14' W 072°09'6 6.2
2015-Jul-18 18:33N 41°09' W 072°14'10 9.9
2015-Jul-18 17:33N 41°17' W 072°06'4 4.4
2015-Jul-18 16:33N 41°21' W 072°06'9 8.8
2015-Jul-18 15:33N 41°13' W 072°10'5 5.2
2015-Jul-18 14:33N 41°09' W 072°14'8 8.3
2015-Jul-18 13:33N 41°16' W 072°08'6 5.7
2015-Jul-18 12:33N 41°21' W 072°06'8 8.1
2015-Jul-18 11:33N 41°14' W 072°09'6 6.1
2015-Jul-18 10:33N 41°09' W 072°14'0 0.0
2015-Jul-18 02:09N 41°09' W 072°14'4 6.3
2015-Jul-18 01:33N 41°13' W 072°12'1010.1
2015-Jul-18 00:33N 41°21' W 072°06'  

Dump ship's entire track history